sensor_id;sensor_type;location;lat;lon;timestamp;pressure;altitude;pressure_sealevel;temperature;humidity
33697;BME280;20031;43.416;23.232;2023-02-28T00:02:09;100812.38;;;6.06;85.18
33697;BME280;20031;43.416;23.232;2023-02-28T00:04:34;100815.88;;;6.05;85.48
33697;BME280;20031;43.416;23.232;2023-02-28T00:07:00;100816.22;;;6.00;85.56
33697;BME280;20031;43.416;23.232;2023-02-28T00:09:25;100824.09;;;5.99;85.80
33697;BME280;20031;43.416;23.232;2023-02-28T00:11:51;100829.16;;;6.00;86.15
33697;BME280;20031;43.416;23.232;2023-02-28T00:14:16;100842.81;;;6.02;86.08
33697;BME280;20031;43.416;23.232;2023-02-28T00:16:42;100840.94;;;6.04;86.23
33697;BME280;20031;43.416;23.232;2023-02-28T00:19:07;100834.72;;;6.07;86.05
33697;BME280;20031;43.416;23.232;2023-02-28T00:21:33;100848.34;;;6.08;86.46
33697;BME280;20031;43.416;23.232;2023-02-28T00:23:58;100850.94;;;6.08;86.11
33697;BME280;20031;43.416;23.232;2023-02-28T00:26:24;100851.97;;;6.06;85.99
33697;BME280;20031;43.416;23.232;2023-02-28T00:28:51;100845.28;;;6.04;86.14
33697;BME280;20031;43.416;23.232;2023-02-28T00:31:17;100859.72;;;6.06;86.27
33697;BME280;20031;43.416;23.232;2023-02-28T00:33:43;100865.84;;;6.05;86.59
33697;BME280;20031;43.416;23.232;2023-02-28T00:36:10;100865.97;;;6.04;86.63
33697;BME280;20031;43.416;23.232;2023-02-28T00:38:37;100858.22;;;6.04;86.86
33697;BME280;20031;43.416;23.232;2023-02-28T00:41:02;100854.06;;;6.01;86.55
33697;BME280;20031;43.416;23.232;2023-02-28T00:43:30;100860.16;;;6.00;86.60
33697;BME280;20031;43.416;23.232;2023-02-28T00:45:56;100865.34;;;6.00;86.52
33697;BME280;20031;43.416;23.232;2023-02-28T00:48:21;100873.94;;;6.01;86.56
33697;BME280;20031;43.416;23.232;2023-02-28T00:50:50;100870.50;;;6.00;86.76
33697;BME280;20031;43.416;23.232;2023-02-28T00:53:15;100873.09;;;6.00;86.54
33697;BME280;20031;43.416;23.232;2023-02-28T00:55:41;100873.22;;;5.99;86.47
33697;BME280;20031;43.416;23.232;2023-02-28T00:58:06;100874.13;;;5.98;86.82
33697;BME280;20031;43.416;23.232;2023-02-28T01:00:31;100875.91;;;5.97;86.71
33697;BME280;20031;43.416;23.232;2023-02-28T01:02:57;100876.63;;;5.99;86.38
33697;BME280;20031;43.416;23.232;2023-02-28T01:05:22;100870.50;;;6.00;86.83
33697;BME280;20031;43.416;23.232;2023-02-28T01:07:48;100870.28;;;6.03;86.97
33697;BME280;20031;43.416;23.232;2023-02-28T01:10:13;100867.00;;;6.01;86.38
33697;BME280;20031;43.416;23.232;2023-02-28T01:12:39;100869.69;;;6.00;86.68
33697;BME280;20031;43.416;23.232;2023-02-28T01:15:04;100867.81;;;6.02;86.86
33697;BME280;20031;43.416;23.232;2023-02-28T01:17:30;100874.63;;;6.03;86.55
33697;BME280;20031;43.416;23.232;2023-02-28T01:19:56;100870.50;;;6.00;86.83
33697;BME280;20031;43.416;23.232;2023-02-28T01:22:21;100882.44;;;5.90;86.52
33697;BME280;20031;43.416;23.232;2023-02-28T01:24:47;100875.84;;;5.86;86.46
33697;BME280;20031;43.416;23.232;2023-02-28T01:27:13;100873.47;;;5.83;86.35
33697;BME280;20031;43.416;23.232;2023-02-28T01:29:38;100880.28;;;5.84;86.89
33697;BME280;20031;43.416;23.232;2023-02-28T01:32:04;100881.97;;;5.85;86.71
33697;BME280;20031;43.416;23.232;2023-02-28T01:34:29;100879.47;;;5.84;86.65
33697;BME280;20031;43.416;23.232;2023-02-28T01:36:55;100870.78;;;5.85;86.64
33697;BME280;20031;43.416;23.232;2023-02-28T01:39:20;100869.38;;;5.81;86.20
33697;BME280;20031;43.416;23.232;2023-02-28T01:41:45;100872.44;;;5.73;86.42
33697;BME280;20031;43.416;23.232;2023-02-28T01:47:14;100880.13;;;5.62;86.64
33697;BME280;20031;43.416;23.232;2023-02-28T01:49:40;100876.91;;;5.59;86.38
33697;BME280;20031;43.416;23.232;2023-02-28T01:52:06;100881.97;;;5.60;86.24
33697;BME280;20031;43.416;23.232;2023-02-28T01:54:34;100883.97;;;5.57;85.99
33697;BME280;20031;43.416;23.232;2023-02-28T01:57:22;100883.13;;;5.56;86.52
33697;BME280;20031;43.416;23.232;2023-02-28T01:59:57;100877.13;;;5.56;86.28
33697;BME280;20031;43.416;23.232;2023-02-28T02:02:26;100872.91;;;5.55;86.27
33697;BME280;20031;43.416;23.232;2023-02-28T02:04:59;100873.13;;;5.52;86.17
33697;BME280;20031;43.416;23.232;2023-02-28T02:07:29;100875.59;;;5.54;86.38
33697;BME280;20031;43.416;23.232;2023-02-28T02:10:15;100882.31;;;5.56;86.36
33697;BME280;20031;43.416;23.232;2023-02-28T02:15:43;100881.38;;;5.57;86.05
33697;BME280;20031;43.416;23.232;2023-02-28T02:40:21;100875.38;;;5.56;86.08
33697;BME280;20031;43.416;23.232;2023-02-28T02:43:08;100874.34;;;5.59;86.17
33697;BME280;20031;43.416;23.232;2023-02-28T02:45:44;100879.41;;;5.60;86.27
33697;BME280;20031;43.416;23.232;2023-02-28T02:48:14;100881.06;;;5.61;86.05
33697;BME280;20031;43.416;23.232;2023-02-28T02:50:45;100888.81;;;5.61;86.08
33697;BME280;20031;43.416;23.232;2023-02-28T02:53:15;100889.50;;;5.63;86.61
33697;BME280;20031;43.416;23.232;2023-02-28T02:55:44;100891.19;;;5.64;85.99
33697;BME280;20031;43.416;23.232;2023-02-28T02:58:15;100890.47;;;5.62;86.08
33697;BME280;20031;43.416;23.232;2023-02-28T03:00:43;100890.47;;;5.62;86.57
33697;BME280;20031;43.416;23.232;2023-02-28T03:03:12;100888.00;;;5.61;86.00
33697;BME280;20031;43.416;23.232;2023-02-28T03:05:46;100894.19;;;5.58;85.73
33697;BME280;20031;43.416;23.232;2023-02-28T03:08:12;100891.72;;;5.57;86.08
33697;BME280;20031;43.416;23.232;2023-02-28T03:10:41;100902.25;;;5.54;85.84
33697;BME280;20031;43.416;23.232;2023-02-28T03:13:25;100897.91;;;5.55;86.23
33697;BME280;20031;43.416;23.232;2023-02-28T03:16:00;100906.81;;;5.51;86.08
33697;BME280;20031;43.416;23.232;2023-02-28T03:18:54;100904.22;;;5.51;86.00
33697;BME280;20031;43.416;23.232;2023-02-28T03:24:22;100913.53;;;5.53;86.34
33697;BME280;20031;43.416;23.232;2023-02-28T03:26:58;100908.34;;;5.53;86.70
33697;BME280;20031;43.416;23.232;2023-02-28T03:29:40;100915.06;;;5.56;86.69
33697;BME280;20031;43.416;23.232;2023-02-28T03:32:23;100914.44;;;5.52;85.82
33697;BME280;20031;43.416;23.232;2023-02-28T03:35:18;100915.28;;;5.53;86.45
33697;BME280;20031;43.416;23.232;2023-02-28T03:37:49;100918.38;;;5.57;86.02
33697;BME280;20031;43.416;23.232;2023-02-28T03:40:25;100919.22;;;5.58;86.55
33697;BME280;20031;43.416;23.232;2023-02-28T03:42:58;100923.03;;;5.53;85.92
33697;BME280;20031;43.416;23.232;2023-02-28T03:45:28;100931.19;;;5.47;86.14
33697;BME280;20031;43.416;23.232;2023-02-28T03:50:41;100931.00;;;5.37;86.25
33697;BME280;20031;43.416;23.232;2023-02-28T03:53:11;100930.47;;;5.32;86.71
33697;BME280;20031;43.416;23.232;2023-02-28T03:55:42;100940.69;;;5.34;86.97
33697;BME280;20031;43.416;23.232;2023-02-28T03:58:22;100940.50;;;5.37;87.08
33697;BME280;20031;43.416;23.232;2023-02-28T04:00:57;100942.38;;;5.35;87.04
33697;BME280;20031;43.416;23.232;2023-02-28T04:03:24;100943.28;;;5.34;87.20
33697;BME280;20031;43.416;23.232;2023-02-28T04:05:52;100936.50;;;5.33;87.81
33697;BME280;20031;43.416;23.232;2023-02-28T04:08:18;100938.22;;;5.32;87.75
33697;BME280;20031;43.416;23.232;2023-02-28T04:10:48;100937.63;;;5.29;87.25
33697;BME280;20031;43.416;23.232;2023-02-28T04:13:14;100943.00;;;5.26;87.75
33697;BME280;20031;43.416;23.232;2023-02-28T04:15:40;100952.47;;;5.25;87.44
33697;BME280;20031;43.416;23.232;2023-02-28T04:18:06;100951.44;;;5.28;87.75
33697;BME280;20031;43.416;23.232;2023-02-28T04:20:31;100953.94;;;5.29;87.28
33697;BME280;20031;43.416;23.232;2023-02-28T04:22:57;100953.22;;;5.27;88.13
33697;BME280;20031;43.416;23.232;2023-02-28T04:25:22;100955.91;;;5.26;87.44
33697;BME280;20031;43.416;23.232;2023-02-28T04:27:47;100954.94;;;5.27;87.88
33697;BME280;20031;43.416;23.232;2023-02-28T04:30:13;100948.97;;;5.26;88.43
33697;BME280;20031;43.416;23.232;2023-02-28T04:32:38;100949.78;;;5.27;88.68
33697;BME280;20031;43.416;23.232;2023-02-28T04:35:04;100952.47;;;5.25;88.15
33697;BME280;20031;43.416;23.232;2023-02-28T04:37:30;100950.94;;;5.23;88.40
33697;BME280;20031;43.416;23.232;2023-02-28T04:40:00;100945.03;;;5.21;88.54
33697;BME280;20031;43.416;23.232;2023-02-28T04:42:26;100956.31;;;5.20;88.90
33697;BME280;20031;43.416;23.232;2023-02-28T04:44:51;100953.75;;;5.20;88.77
33697;BME280;20031;43.416;23.232;2023-02-28T04:47:17;100949.81;;;5.14;88.52
33697;BME280;20031;43.416;23.232;2023-02-28T04:49:42;100951.44;;;5.15;88.64
33697;BME280;20031;43.416;23.232;2023-02-28T04:52:08;100950.63;;;5.15;89.32
33697;BME280;20031;43.416;23.232;2023-02-28T04:54:35;100946.28;;;5.15;89.11
33697;BME280;20031;43.416;23.232;2023-02-28T04:57:00;100951.44;;;5.15;88.98
33697;BME280;20031;43.416;23.232;2023-02-28T04:59:26;100948.84;;;5.15;89.10
33697;BME280;20031;43.416;23.232;2023-02-28T05:01:52;100947.13;;;5.16;89.40
33697;BME280;20031;43.416;23.232;2023-02-28T05:04:17;100956.44;;;5.18;89.29
33697;BME280;20031;43.416;23.232;2023-02-28T05:06:43;100957.25;;;5.19;89.34
33697;BME280;20031;43.416;23.232;2023-02-28T05:09:09;100958.81;;;5.21;90.01
33697;BME280;20031;43.416;23.232;2023-02-28T05:11:37;100963.84;;;5.23;89.80
33697;BME280;20031;43.416;23.232;2023-02-28T05:14:05;100974.09;;;5.24;89.58
33697;BME280;20031;43.416;23.232;2023-02-28T05:16:32;100978.28;;;5.25;90.14
33697;BME280;20031;43.416;23.232;2023-02-28T05:18:57;100976.47;;;5.27;90.25
33697;BME280;20031;43.416;23.232;2023-02-28T05:23:57;100987.09;;;5.23;90.12
33697;BME280;20031;43.416;23.232;2023-02-28T05:26:23;100993.19;;;5.22;90.14
33697;BME280;20031;43.416;23.232;2023-02-28T05:28:49;100991.41;;;5.22;90.31
33697;BME280;20031;43.416;23.232;2023-02-28T05:31:14;100981.19;;;5.21;90.48
33697;BME280;20031;43.416;23.232;2023-02-28T05:33:40;100992.25;;;5.23;90.17
33697;BME280;20031;43.416;23.232;2023-02-28T05:36:06;101000.00;;;5.23;90.14
33697;BME280;20031;43.416;23.232;2023-02-28T05:38:32;101007.00;;;5.21;90.20
33697;BME280;20031;43.416;23.232;2023-02-28T05:40:57;101003.59;;;5.20;90.76
33697;BME280;20031;43.416;23.232;2023-02-28T05:43:23;101003.72;;;5.19;90.54
33697;BME280;20031;43.416;23.232;2023-02-28T05:45:49;101008.06;;;5.18;90.27
33697;BME280;20031;43.416;23.232;2023-02-28T05:48:15;101008.78;;;5.20;90.77
33697;BME280;20031;43.416;23.232;2023-02-28T05:50:40;101011.03;;;5.25;90.71
33697;BME280;20031;43.416;23.232;2023-02-28T05:53:08;101011.03;;;5.25;90.91
33697;BME280;20031;43.416;23.232;2023-02-28T05:55:33;101011.75;;;5.27;90.70
33697;BME280;20031;43.416;23.232;2023-02-28T05:58:01;101009.81;;;5.30;90.87
33697;BME280;20031;43.416;23.232;2023-02-28T06:00:26;101012.72;;;5.26;90.82
33697;BME280;20031;43.416;23.232;2023-02-28T06:02:53;101025.81;;;5.23;90.34
33697;BME280;20031;43.416;23.232;2023-02-28T06:05:21;101027.47;;;5.24;90.68
33697;BME280;20031;43.416;23.232;2023-02-28T06:07:47;101029.13;;;5.25;90.42
33697;BME280;20031;43.416;23.232;2023-02-28T06:10:13;101022.09;;;5.27;90.43
33697;BME280;20031;43.416;23.232;2023-02-28T06:12:39;101022.72;;;5.30;90.99
33697;BME280;20031;43.416;23.232;2023-02-28T06:15:07;101029.97;;;5.38;91.39
33697;BME280;20031;43.416;23.232;2023-02-28T06:17:35;101018.72;;;5.39;90.50
33697;BME280;20031;43.416;23.232;2023-02-28T06:20:00;101018.41;;;5.43;90.61
33697;BME280;20031;43.416;23.232;2023-02-28T06:22:26;101025.00;;;5.47;90.70
33697;BME280;20031;43.416;23.232;2023-02-28T06:24:51;101024.38;;;5.44;90.43
33697;BME280;20031;43.416;23.232;2023-02-28T06:27:17;101030.38;;;5.44;90.52
33697;BME280;20031;43.416;23.232;2023-02-28T06:29:44;101028.41;;;5.48;90.47
33697;BME280;20031;43.416;23.232;2023-02-28T06:32:10;101033.56;;;5.48;90.26
33697;BME280;20031;43.416;23.232;2023-02-28T06:34:35;101034.72;;;5.44;90.59
33697;BME280;20031;43.416;23.232;2023-02-28T06:37:01;101025.22;;;5.44;90.91
33697;BME280;20031;43.416;23.232;2023-02-28T06:39:28;101043.91;;;5.48;90.41
33697;BME280;20031;43.416;23.232;2023-02-28T06:41:54;101043.09;;;5.47;90.54
33697;BME280;20031;43.416;23.232;2023-02-28T06:44:20;101042.44;;;5.44;90.31
33697;BME280;20031;43.416;23.232;2023-02-28T06:46:45;101046.00;;;5.43;90.54
33697;BME280;20031;43.416;23.232;2023-02-28T06:49:11;101045.88;;;5.44;90.29
33697;BME280;20031;43.416;23.232;2023-02-28T06:51:39;101042.78;;;5.52;90.62
33697;BME280;20031;43.416;23.232;2023-02-28T06:54:05;101044.22;;;5.56;90.33
33697;BME280;20031;43.416;23.232;2023-02-28T06:56:34;101047.53;;;5.57;90.25
33697;BME280;20031;43.416;23.232;2023-02-28T06:59:00;101044.84;;;5.59;90.52
33697;BME280;20031;43.416;23.232;2023-02-28T07:01:25;101046.50;;;5.60;90.11
33697;BME280;20031;43.416;23.232;2023-02-28T07:03:53;101034.41;;;5.60;90.36
33697;BME280;20031;43.416;23.232;2023-02-28T07:06:20;101034.63;;;5.70;90.82
33697;BME280;20031;43.416;23.232;2023-02-28T07:08:48;101026.47;;;5.76;90.21
33697;BME280;20031;43.416;23.232;2023-02-28T07:11:14;101041.97;;;5.76;90.04
33697;BME280;20031;43.416;23.232;2023-02-28T07:13:39;101042.69;;;5.78;90.06
33697;BME280;20031;43.416;23.232;2023-02-28T07:16:07;101041.06;;;5.77;90.31
33697;BME280;20031;43.416;23.232;2023-02-28T07:18:34;101039.72;;;5.84;89.95
33697;BME280;20031;43.416;23.232;2023-02-28T07:21:02;101037.03;;;5.85;89.89
33697;BME280;20031;43.416;23.232;2023-02-28T07:23:28;101041.44;;;5.83;90.21
33697;BME280;20031;43.416;23.232;2023-02-28T07:25:53;101031.84;;;5.85;90.04
33697;BME280;20031;43.416;23.232;2023-02-28T07:28:19;101036.19;;;5.85;89.85
33697;BME280;20031;43.416;23.232;2023-02-28T07:30:44;101037.25;;;5.82;90.05
33697;BME280;20031;43.416;23.232;2023-02-28T07:33:10;101036.38;;;5.82;89.64
33697;BME280;20031;43.416;23.232;2023-02-28T07:35:35;101039.81;;;5.82;90.14
33697;BME280;20031;43.416;23.232;2023-02-28T07:38:01;101038.66;;;5.86;89.96
33697;BME280;20031;43.416;23.232;2023-02-28T07:40:28;101041.97;;;5.88;89.86
33697;BME280;20031;43.416;23.232;2023-02-28T07:42:53;101043.53;;;5.91;90.17
33697;BME280;20031;43.416;23.232;2023-02-28T07:45:19;101044.84;;;5.96;89.79
33697;BME280;20031;43.416;23.232;2023-02-28T07:47:44;101039.28;;;6.02;89.97
33697;BME280;20031;43.416;23.232;2023-02-28T07:50:13;101041.66;;;6.05;90.04
33697;BME280;20031;43.416;23.232;2023-02-28T07:52:39;101044.03;;;6.08;89.79
33697;BME280;20031;43.416;23.232;2023-02-28T07:55:07;101050.63;;;6.12;90.38
33697;BME280;20031;43.416;23.232;2023-02-28T07:57:33;101048.97;;;6.11;90.19
33697;BME280;20031;43.416;23.232;2023-02-28T07:59:58;101061.19;;;6.09;89.90
33697;BME280;20031;43.416;23.232;2023-02-28T08:02:24;101048.34;;;6.07;89.74
33697;BME280;20031;43.416;23.232;2023-02-28T08:04:50;101052.91;;;6.04;89.77
33697;BME280;20031;43.416;23.232;2023-02-28T08:07:16;101059.75;;;6.05;89.78
33697;BME280;20031;43.416;23.232;2023-02-28T08:09:42;101065.63;;;6.07;89.82
33697;BME280;20031;43.416;23.232;2023-02-28T08:12:09;101067.41;;;6.07;90.19
33697;BME280;20031;43.416;23.232;2023-02-28T08:14:35;101057.97;;;6.06;90.23
33697;BME280;20031;43.416;23.232;2023-02-28T08:17:01;101063.69;;;6.10;90.49
33697;BME280;20031;43.416;23.232;2023-02-28T08:19:27;101069.44;;;6.14;90.05
33697;BME280;20031;43.416;23.232;2023-02-28T08:21:52;101071.13;;;6.15;90.07
33697;BME280;20031;43.416;23.232;2023-02-28T08:24:17;101069.22;;;6.17;90.36
33697;BME280;20031;43.416;23.232;2023-02-28T08:26:43;101070.91;;;6.18;90.33
33697;BME280;20031;43.416;23.232;2023-02-28T08:29:09;101069.88;;;6.20;90.58
33697;BME280;20031;43.416;23.232;2023-02-28T08:31:34;101066.22;;;6.23;90.30
33697;BME280;20031;43.416;23.232;2023-02-28T08:34:14;101072.72;;;6.28;90.23
33697;BME280;20031;43.416;23.232;2023-02-28T08:36:41;101066.31;;;6.34;91.04
33697;BME280;20031;43.416;23.232;2023-02-28T08:39:06;101063.81;;;6.32;90.43
33697;BME280;20031;43.416;23.232;2023-02-28T08:41:33;101062.38;;;6.28;90.23
33697;BME280;20031;43.416;23.232;2023-02-28T08:43:58;101075.94;;;6.32;90.39
33697;BME280;20031;43.416;23.232;2023-02-28T08:46:24;101083.69;;;6.32;90.36
33697;BME280;20031;43.416;23.232;2023-02-28T08:48:54;101082.75;;;6.33;90.90
33697;BME280;20031;43.416;23.232;2023-02-28T08:51:20;101068.91;;;6.34;90.97
33697;BME280;20031;43.416;23.232;2023-02-28T08:54:00;101083.38;;;6.36;90.27
33697;BME280;20031;43.416;23.232;2023-02-28T08:56:27;101075.63;;;6.36;91.20
33697;BME280;20031;43.416;23.232;2023-02-28T08:58:55;101079.72;;;6.39;91.04
33697;BME280;20031;43.416;23.232;2023-02-28T09:01:23;101082.31;;;6.39;90.92
33697;BME280;20031;43.416;23.232;2023-02-28T09:03:50;101083.16;;;6.39;90.32
33697;BME280;20031;43.416;23.232;2023-02-28T09:06:17;101081.16;;;6.43;90.65
33697;BME280;20031;43.416;23.232;2023-02-28T09:08:44;101069.38;;;6.39;90.49
33697;BME280;20031;43.416;23.232;2023-02-28T09:11:10;101065.75;;;6.41;90.93
33697;BME280;20031;43.416;23.232;2023-02-28T09:13:36;101073.19;;;6.46;90.83
33697;BME280;20031;43.416;23.232;2023-02-28T09:16:03;101067.91;;;6.47;90.45
33697;BME280;20031;43.416;23.232;2023-02-28T09:18:29;101076.75;;;6.45;90.36
33697;BME280;20031;43.416;23.232;2023-02-28T09:20:55;101062.56;;;6.38;90.38
33697;BME280;20031;43.416;23.232;2023-02-28T09:23:21;101063.28;;;6.40;90.91
33697;BME280;20031;43.416;23.232;2023-02-28T09:25:52;101070.22;;;6.39;90.63
33697;BME280;20031;43.416;23.232;2023-02-28T09:28:18;101074.78;;;6.36;90.79
33697;BME280;20031;43.416;23.232;2023-02-28T09:30:45;101072.28;;;6.34;90.22
33697;BME280;20031;43.416;23.232;2023-02-28T09:33:12;101071.81;;;6.29;90.25
33697;BME280;20031;43.416;23.232;2023-02-28T09:35:38;101075.22;;;6.30;91.00
33697;BME280;20031;43.416;23.232;2023-02-28T09:38:04;101077.25;;;6.37;91.21
33697;BME280;20031;43.416;23.232;2023-02-28T09:40:30;101091.75;;;6.40;90.93
33697;BME280;20031;43.416;23.232;2023-02-28T09:42:57;101087.50;;;6.39;90.34
33697;BME280;20031;43.416;23.232;2023-02-28T09:45:29;101079.72;;;6.39;90.45
33697;BME280;20031;43.416;23.232;2023-02-28T09:47:59;101068.56;;;6.38;90.08
33697;BME280;20031;43.416;23.232;2023-02-28T09:50:34;101070.94;;;6.41;90.50
33697;BME280;20031;43.416;23.232;2023-02-28T09:53:03;101064.44;;;6.36;90.06
33697;BME280;20031;43.416;23.232;2023-02-28T09:55:51;101067.34;;;6.31;90.63
33697;BME280;20031;43.416;23.232;2023-02-28T09:58:26;101068.06;;;6.33;90.52
33697;BME280;20031;43.416;23.232;2023-02-28T10:01:43;101069.81;;;6.33;90.89
33697;BME280;20031;43.416;23.232;2023-02-28T10:03:56;101071.06;;;6.27;90.69
33697;BME280;20031;43.416;23.232;2023-02-28T10:06:27;101072.63;;;6.30;90.56
33697;BME280;20031;43.416;23.232;2023-02-28T10:09:08;101074.59;;;6.26;90.12
33697;BME280;20031;43.416;23.232;2023-02-28T10:11:40;101073.97;;;6.23;90.17
33697;BME280;20031;43.416;23.232;2023-02-28T10:14:15;101081.84;;;6.21;90.43
33697;BME280;20031;43.416;23.232;2023-02-28T10:16:55;101075.03;;;6.20;90.61
33697;BME280;20031;43.416;23.232;2023-02-28T10:19:39;101077.50;;;6.22;90.70
33697;BME280;20031;43.416;23.232;2023-02-28T10:22:20;101081.94;;;6.20;90.69
33697;BME280;20031;43.416;23.232;2023-02-28T10:24:52;101084.94;;;6.26;91.38
33697;BME280;20031;43.416;23.232;2023-02-28T10:27:23;101080.28;;;6.31;90.94
33697;BME280;20031;43.416;23.232;2023-02-28T10:29:52;101078.53;;;6.32;90.71
33697;BME280;20031;43.416;23.232;2023-02-28T10:32:21;101069.00;;;6.32;90.76
33697;BME280;20031;43.416;23.232;2023-02-28T10:34:52;101073.97;;;6.35;90.81
33697;BME280;20031;43.416;23.232;2023-02-28T10:37:20;101075.84;;;6.33;90.93
33697;BME280;20031;43.416;23.232;2023-02-28T10:39:46;101081.22;;;6.30;90.44
33697;BME280;20031;43.416;23.232;2023-02-28T10:42:21;101082.25;;;6.28;91.35
33697;BME280;20031;43.416;23.232;2023-02-28T10:45:05;101074.72;;;6.25;90.31
33697;BME280;20031;43.416;23.232;2023-02-28T10:47:33;101083.19;;;6.27;90.79
33697;BME280;20031;43.416;23.232;2023-02-28T10:49:59;101076.97;;;6.29;91.12
33697;BME280;20031;43.416;23.232;2023-02-28T10:52:39;101079.66;;;6.28;90.53
33697;BME280;20031;43.416;23.232;2023-02-28T10:55:34;101074.72;;;6.25;91.09
33697;BME280;20031;43.416;23.232;2023-02-28T10:58:00;101073.56;;;6.29;91.06
33697;BME280;20031;43.416;23.232;2023-02-28T11:00:32;101069.81;;;6.33;90.76
33697;BME280;20031;43.416;23.232;2023-02-28T11:02:58;101074.38;;;6.29;91.17
33697;BME280;20031;43.416;23.232;2023-02-28T11:05:33;101069.31;;;6.28;90.79
33697;BME280;20031;43.416;23.232;2023-02-28T11:08:12;101067.16;;;6.22;90.37
33697;BME280;20031;43.416;23.232;2023-02-28T11:10:39;101066.53;;;6.18;90.47
33697;BME280;20031;43.416;23.232;2023-02-28T11:13:05;101065.94;;;6.15;90.67
33697;BME280;20031;43.416;23.232;2023-02-28T11:15:32;101061.78;;;6.12;91.05
33697;BME280;20031;43.416;23.232;2023-02-28T11:18:01;101066.97;;;6.12;91.33
33697;BME280;20031;43.416;23.232;2023-02-28T11:20:30;101066.97;;;6.12;91.28
33697;BME280;20031;43.416;23.232;2023-02-28T11:23:00;101061.59;;;6.15;90.99
33697;BME280;20031;43.416;23.232;2023-02-28T11:25:35;101060.56;;;6.18;91.39
33697;BME280;20031;43.416;23.232;2023-02-28T11:28:04;101059.91;;;6.27;91.66
33697;BME280;20031;43.416;23.232;2023-02-28T11:30:32;101062.50;;;6.27;91.30
33697;BME280;20031;43.416;23.232;2023-02-28T11:32:59;101068.59;;;6.26;90.87
33697;BME280;20031;43.416;23.232;2023-02-28T11:35:32;101061.56;;;6.28;91.31
33697;BME280;20031;43.416;23.232;2023-02-28T11:38:00;101061.56;;;6.28;91.17
33697;BME280;20031;43.416;23.232;2023-02-28T11:40:52;101064.75;;;6.31;91.41
33697;BME280;20031;43.416;23.232;2023-02-28T11:46:24;101062.84;;;6.46;91.74
33697;BME280;20031;43.416;23.232;2023-02-28T11:49:13;101059.56;;;6.44;91.16
33697;BME280;20031;43.416;23.232;2023-02-28T11:52:06;101058.22;;;6.38;90.95
33697;BME280;20031;43.416;23.232;2023-02-28T12:05:47;101051.59;;;6.34;91.31
33697;BME280;20031;43.416;23.232;2023-02-28T12:11:54;101054.50;;;6.30;91.01
33697;BME280;20031;43.416;23.232;2023-02-28T12:19:58;101053.84;;;6.39;90.72
33697;BME280;20031;43.416;23.232;2023-02-28T12:22:32;101048.09;;;6.35;90.99
33697;BME280;20031;43.416;23.232;2023-02-28T12:27:40;101051.56;;;6.47;90.95
33697;BME280;20031;43.416;23.232;2023-02-28T12:30:17;101053.84;;;6.51;90.58
33697;BME280;20031;43.416;23.232;2023-02-28T12:32:48;101054.16;;;6.47;90.54
33697;BME280;20031;43.416;23.232;2023-02-28T12:35:32;101054.38;;;6.44;90.88
33697;BME280;20031;43.416;23.232;2023-02-28T12:38:22;101058.84;;;6.42;90.37
33697;BME280;20031;43.416;23.232;2023-02-28T12:40:56;101050.88;;;6.45;90.55
33697;BME280;20031;43.416;23.232;2023-02-28T12:43:28;101048.97;;;6.47;90.75
33697;BME280;20031;43.416;23.232;2023-02-28T12:46:00;101053.22;;;6.48;90.34
33697;BME280;20031;43.416;23.232;2023-02-28T12:48:33;101045.97;;;6.53;90.90
33697;BME280;20031;43.416;23.232;2023-02-28T12:51:02;101054.22;;;6.58;90.18
33697;BME280;20031;43.416;23.232;2023-02-28T12:56:36;101051.75;;;6.56;90.48
33697;BME280;20031;43.416;23.232;2023-02-28T12:59:16;101045.31;;;6.61;90.22
33697;BME280;20031;43.416;23.232;2023-02-28T13:01:50;101049.06;;;6.58;89.74
33697;BME280;20031;43.416;23.232;2023-02-28T13:07:06;101046.41;;;6.47;89.42
33697;BME280;20031;43.416;23.232;2023-02-28T13:09:38;101046.72;;;6.42;89.78
33697;BME280;20031;43.416;23.232;2023-02-28T13:12:13;101042.38;;;6.43;89.95
33697;BME280;20031;43.416;23.232;2023-02-28T13:14:39;101035.47;;;6.43;89.80
33697;BME280;20031;43.416;23.232;2023-02-28T13:20:25;101037.59;;;6.49;89.95
33697;BME280;20031;43.416;23.232;2023-02-28T13:22:53;101037.81;;;6.46;90.06
33697;BME280;20031;43.416;23.232;2023-02-28T13:27:52;101033.69;;;6.44;89.62
33697;BME280;20031;43.416;23.232;2023-02-28T13:36:06;101028.25;;;6.59;90.30
33697;BME280;20031;43.416;23.232;2023-02-28T13:38:45;101022.97;;;6.60;89.73
33697;BME280;20031;43.416;23.232;2023-02-28T13:49:31;101013.88;;;6.55;89.65
33697;BME280;20031;43.416;23.232;2023-02-28T13:57:44;101022.03;;;6.61;89.64
33697;BME280;20031;43.416;23.232;2023-02-28T14:03:06;101011.88;;;6.58;89.41
33697;BME280;20031;43.416;23.232;2023-02-28T14:05:35;101007.47;;;6.48;89.21
33697;BME280;20031;43.416;23.232;2023-02-28T14:08:21;101006.34;;;6.52;90.11
33697;BME280;20031;43.416;23.232;2023-02-28T14:10:50;101012.53;;;6.50;88.94
33697;BME280;20031;43.416;23.232;2023-02-28T14:13:42;101005.00;;;6.47;89.35
33697;BME280;20031;43.416;23.232;2023-02-28T14:16:11;101003.84;;;6.51;89.91
33697;BME280;20031;43.416;23.232;2023-02-28T14:18:42;101008.91;;;6.52;89.78
33697;BME280;20031;43.416;23.232;2023-02-28T14:21:20;101008.41;;;6.47;89.28
33697;BME280;20031;43.416;23.232;2023-02-28T14:27:05;101008.97;;;6.40;88.49
33697;BME280;20031;43.416;23.232;2023-02-28T14:32:41;101010.06;;;6.25;89.13
33697;BME280;20031;43.416;23.232;2023-02-28T14:38:25;101020.41;;;6.25;89.40
33697;BME280;20031;43.416;23.232;2023-02-28T14:40:55;101019.19;;;6.18;89.49
33697;BME280;20031;43.416;23.232;2023-02-28T14:43:25;101029.53;;;6.18;89.79
33697;BME280;20031;43.416;23.232;2023-02-28T14:45:54;101024.84;;;6.23;90.11
33697;BME280;20031;43.416;23.232;2023-02-28T14:48:22;101021.00;;;6.28;89.89